Time;durP1;ratioP1;P1;durP2;ratioP2;P2;SDS_P1;SDS_P2;PMS_P1;PMS_P2;Temp;Humidity;BMP_temperature;BMP_pressure;BME280_temperature;BME280_humidity;BME280_pressure;Samples;Min_cycle;Max_cycle;Signal;HPM_P1;HPM_P2
2023/07/22 00:00:33;;;;;;;6.05;2.80;;;15.70;99.90;;;15.88;100.00;100851.25;5238331;28;20495;-49
2023/07/22 00:03:06;;;;;;;5.65;2.95;;;15.60;99.90;;;15.83;100.00;100859.06;5223175;28;20040;-48
2023/07/22 00:05:38;;;;;;;6.72;2.92;;;15.60;99.90;;;15.80;100.00;100860.78;5211839;28;20042;-48
2023/07/22 00:08:12;;;;;;;4.13;2.50;;;15.50;99.90;;;15.75;100.00;100858.06;5228835;28;20128;-48
2023/07/22 00:10:44;;;;;;;4.30;2.55;;;15.50;99.90;;;15.72;100.00;100853.66;5218650;28;20037;-49
2023/07/22 00:13:17;;;;;;;4.35;2.45;;;15.40;99.90;;;15.70;100.00;100854.47;5227399;28;20049;-49
2023/07/22 00:15:50;;;;;;;5.45;2.78;;;15.40;99.90;;;15.73;100.00;100847.53;5220440;28;20491;-49
2023/07/22 00:18:23;;;;;;;5.18;2.85;;;15.50;99.90;;;15.73;100.00;100844.91;5230499;28;20077;-49
2023/07/22 00:20:56;;;;;;;5.32;3.05;;;15.50;99.90;;;15.75;100.00;100850.19;5208964;28;20469;-49
2023/07/22 00:23:30;;;;;;;5.82;2.83;;;15.40;99.90;;;15.76;100.00;100854.56;5230463;28;20449;-49
2023/07/22 00:26:03;;;;;;;4.95;2.72;;;15.50;99.90;;;15.80;100.00;100847.63;5222536;28;20045;-49
2023/07/22 00:28:35;;;;;;;5.68;2.80;;;15.50;99.90;;;15.82;100.00;100854.66;5207140;28;20053;-49
2023/07/22 00:31:08;;;;;;;4.43;2.47;;;15.50;99.90;;;15.84;100.00;100860.81;5222985;28;20410;-48
2023/07/22 00:33:40;;;;;;;6.32;2.90;;;15.60;99.90;;;15.83;100.00;100859.06;5203157;28;20041;-48
2023/07/22 00:36:13;;;;;;;4.78;2.53;;;15.60;99.90;;;15.82;100.00;100862.53;5228453;28;20413;-48
2023/07/22 00:38:47;;;;;;;4.85;2.50;;;15.60;99.90;;;15.81;100.00;100863.41;5218295;28;20045;-48
2023/07/22 00:41:19;;;;;;;5.75;3.05;;;15.50;99.90;;;15.78;100.00;100858.13;5228551;28;20632;-48
2023/07/22 00:43:51;;;;;;;5.72;2.72;;;15.60;99.90;;;15.77;100.00;100853.72;5215033;28;20037;-48
2023/07/22 00:46:24;;;;;;;5.13;2.78;;;15.50;99.90;;;15.78;100.00;100860.75;5220908;28;20134;-49
2023/07/22 00:48:56;;;;;;;6.55;2.97;;;15.50;99.90;;;15.78;100.00;100855.50;5233898;28;20040;-48
2023/07/22 00:51:29;;;;;;;5.45;2.90;;;15.50;99.90;;;15.80;100.00;100853.75;5222533;28;21444;-48
2023/07/22 00:54:04;;;;;;;5.50;2.78;;;15.50;99.90;;;15.80;100.00;100859.03;5214931;28;20045;-49
2023/07/22 00:56:38;;;;;;;6.43;2.85;;;15.50;99.90;;;15.83;100.00;100863.44;5210907;28;20123;-48
2023/07/22 00:59:10;;;;;;;5.78;2.95;;;15.60;99.90;;;15.81;100.00;100865.16;5235517;28;20053;-48
2023/07/22 01:01:43;;;;;;;6.45;2.80;;;15.60;99.90;;;15.82;100.00;100861.66;5210231;28;20041;-48
2023/07/22 01:04:17;;;;;;;5.38;2.90;;;15.50;99.90;;;15.80;100.00;100869.53;5204433;28;20045;-48
2023/07/22 01:06:52;;;;;;;6.50;3.30;;;15.60;99.90;;;15.80;100.00;100859.03;5217594;28;20049;-48
2023/07/22 01:09:26;;;;;;;6.80;3.03;;;15.60;99.90;;;15.80;100.00;100859.03;5218940;28;20582;-48
2023/07/22 01:11:59;;;;;;;5.53;2.95;;;15.60;99.90;;;15.76;100.00;100853.69;5218785;28;20037;-49
2023/07/22 01:14:32;;;;;;;5.07;2.95;;;15.60;99.90;;;15.76;100.00;100854.56;5230153;28;20053;-48
2023/07/22 01:17:07;;;;;;;6.60;3.55;;;15.60;99.90;;;15.75;100.00;100855.44;5223027;28;20442;-49
2023/07/22 01:19:40;;;;;;;7.65;3.15;;;15.60;99.90;;;15.75;100.00;100850.19;5222629;28;20048;-49
2023/07/22 01:22:14;;;;;;;5.07;2.80;;;15.60;99.90;;;15.75;100.00;100844.94;5214006;28;20045;-48
2023/07/22 01:24:48;;;;;;;6.65;3.22;;;15.60;99.90;;;15.73;100.00;100844.91;5223028;28;20037;-49
2023/07/22 01:27:20;;;;;;;5.72;3.03;;;15.50;99.90;;;15.73;100.00;100838.78;5214370;28;20057;-48
2023/07/22 01:29:53;;;;;;;6.10;3.25;;;15.50;99.90;;;15.73;100.00;100838.78;5214520;28;20474;-50
2023/07/22 01:32:26;;;;;;;6.07;3.10;;;15.50;99.90;;;15.73;100.00;100836.16;5205406;28;20059;-51
2023/07/22 01:34:58;;;;;;;6.93;3.55;;;15.50;99.90;;;15.73;100.00;100847.53;5214253;28;20041;-49
2023/07/22 01:37:31;;;;;;;6.60;3.17;;;15.50;99.90;;;15.71;100.00;100848.34;5203107;28;20081;-50
2023/07/22 01:40:11;;;;;;;5.43;2.92;;;15.50;99.90;;;15.67;100.00;100857.06;5233564;28;20051;-51
2023/07/22 01:42:47;;;;;;;6.53;3.28;;;15.50;99.90;;;15.64;100.00;100844.75;5217476;28;20040;-51
2023/07/22 01:45:19;;;;;;;6.63;3.33;;;15.40;99.90;;;15.62;100.00;100842.97;5234988;28;20049;-49
2023/07/22 01:47:52;;;;;;;6.45;3.47;;;15.40;99.90;;;15.60;100.00;100839.41;5216689;28;20051;-50
2023/07/22 01:50:24;;;;;;;6.00;3.10;;;15.40;99.90;;;15.57;100.00;100841.97;5226131;28;20056;-50
2023/07/22 01:53:00;;;;;;;7.38;3.65;;;15.40;99.90;;;15.54;100.00;100836.69;5231736;28;20135;-51
2023/07/22 01:55:34;;;;;;;6.35;3.08;;;15.40;99.90;;;15.54;100.00;100837.59;5205425;28;20064;-50
2023/07/22 01:58:06;;;;;;;5.78;3.15;;;15.40;99.90;;;15.55;100.00;100836.72;5214660;28;20063;-50
2023/07/22 02:00:39;;;;;;;7.43;3.50;;;15.30;99.90;;;15.57;100.00;100836.72;5237227;28;20041;-49
2023/07/22 02:03:11;;;;;;;6.30;3.58;;;15.30;99.90;;;15.57;100.00;100834.09;5221132;28;20139;-50
2023/07/22 02:05:44;;;;;;;6.50;3.42;;;15.40;99.90;;;15.60;100.00;100839.41;5209580;28;20053;-50
2023/07/22 02:08:16;;;;;;;6.47;3.50;;;15.40;99.90;;;15.63;100.00;100834.22;5225957;28;20612;-50
2023/07/22 02:10:50;;;;;;;7.05;3.42;;;15.40;99.90;;;15.62;100.00;100833.34;5209196;28;20255;-50
2023/07/22 02:13:22;;;;;;;6.05;2.83;;;15.40;99.90;;;15.64;100.00;100831.63;5226354;28;20545;-50
2023/07/22 02:15:55;;;;;;;6.32;3.17;;;15.40;99.90;;;15.67;100.00;100831.69;5221505;28;20044;-49
2023/07/22 02:18:28;;;;;;;6.28;3.13;;;15.50;99.90;;;15.69;100.00;100829.06;5211537;28;20087;-50
2023/07/22 02:21:00;;;;;;;5.72;2.97;;;15.50;99.90;;;15.71;100.00;100832.59;5223918;28;20044;-50
2023/07/22 02:23:32;;;;;;;5.70;3.08;;;15.50;99.90;;;15.71;100.00;100838.75;5218408;28;20052;-50
2023/07/22 02:26:07;;;;;;;6.38;3.08;;;15.50;99.90;;;15.73;100.00;100838.78;5217325;28;20095;-50
2023/07/22 02:28:39;;;;;;;7.72;3.78;;;15.50;99.90;;;15.72;100.00;100829.13;5228409;28;20059;-50
2023/07/22 02:31:12;;;;;;;6.70;3.45;;;15.50;99.90;;;15.71;100.00;100835.22;5213234;28;20041;-49
2023/07/22 02:33:44;;;;;;;7.30;3.10;;;15.50;99.90;;;15.69;100.00;100829.06;5228877;28;20045;-50
2023/07/22 02:36:16;;;;;;;7.65;3.92;;;15.50;99.90;;;15.67;100.00;100833.44;5222283;28;20049;-49
2023/07/22 02:38:49;;;;;;;7.43;3.50;;;15.50;99.90;;;15.63;100.00;100831.59;5221093;28;20045;-50
2023/07/22 02:41:23;;;;;;;6.90;3.38;;;15.50;99.90;;;15.62;100.00;100827.22;5220459;28;20049;-49
2023/07/22 02:43:55;;;;;;;6.22;3.08;;;15.50;99.90;;;15.63;100.00;100834.22;5212826;28;20052;-50
2023/07/22 02:46:27;;;;;;;6.50;3.20;;;15.50;99.90;;;15.67;100.00;100829.06;5212444;28;20057;-49
2023/07/22 02:49:03;;;;;;;7.55;3.58;;;15.50;99.90;;;15.69;100.00;100834.31;5214393;28;20499;-50
2023/07/22 02:51:35;;;;;;;5.85;2.95;;;15.50;99.90;;;15.67;100.00;100836.94;5224768;28;20045;-49
2023/07/22 02:54:08;;;;;;;6.55;3.08;;;15.50;99.90;;;15.67;100.00;100838.69;5232196;28;20041;-50
2023/07/22 02:56:42;;;;;;;5.72;2.85;;;15.50;99.90;;;15.64;100.00;100830.72;5212509;28;20045;-51
2023/07/22 02:59:14;;;;;;;6.72;3.05;;;15.50;99.90;;;15.65;100.00;100838.66;5212420;28;20045;-50
2023/07/22 03:01:46;;;;;;;6.75;3.28;;;15.50;99.90;;;15.58;100.00;100835.88;5212188;28;20132;-50
2023/07/22 03:04:19;;;;;;;6.28;3.20;;;15.50;99.90;;;15.53;100.00;100842.81;5212642;28;20044;-52
2023/07/22 03:06:52;;;;;;;5.57;3.25;;;15.40;99.90;;;15.51;100.00;100839.25;5221096;28;20065;-49
2023/07/22 03:09:24;;;;;;;5.90;3.50;;;15.40;99.90;;;15.52;100.00;100844.56;5220224;28;20407;-50
2023/07/22 03:11:58;;;;;;;6.35;2.80;;;15.40;99.90;;;15.51;100.00;100841.88;5220230;28;20136;-50
2023/07/22 03:14:37;;;;;;;5.78;2.70;;;15.40;99.90;;;15.48;100.00;100834.84;5220722;28;20132;-49
2023/07/22 03:17:14;;;;;;;5.28;2.85;;;15.30;99.90;;;15.47;100.00;100841.84;5220739;28;20065;-50
2023/07/22 03:19:46;;;;;;;6.13;3.20;;;15.30;99.90;;;15.42;100.00;100843.53;5204590;28;20456;-50
2023/07/22 03:22:19;;;;;;;5.43;2.88;;;15.30;99.90;;;15.44;100.00;100843.53;5211932;28;20067;-49
2023/07/22 03:24:54;;;;;;;5.65;3.10;;;15.30;99.90;;;15.43;100.00;100839.16;5220981;28;20033;-51
2023/07/22 03:27:28;;;;;;;6.15;3.03;;;15.30;99.90;;;15.45;100.00;100840.03;5212209;28;20049;-50
2023/07/22 03:30:01;;;;;;;7.53;3.42;;;15.20;99.90;;;15.45;100.00;100840.97;5220456;28;20045;-50
2023/07/22 03:32:33;;;;;;;7.32;3.38;;;15.30;99.90;;;15.48;100.00;100842.75;5209757;28;20533;-50
2023/07/22 03:35:10;;;;;;;6.82;3.35;;;15.30;99.90;;;15.44;100.00;100839.16;5209921;28;20048;-50
2023/07/22 03:37:43;;;;;;;7.97;3.78;;;15.30;99.90;;;15.42;100.00;100835.63;5235447;28;20098;-50
2023/07/22 03:40:19;;;;;;;8.00;3.78;;;15.20;99.90;;;15.43;100.00;100837.41;5220170;28;20048;-50
2023/07/22 03:42:58;;;;;;;8.15;3.42;;;15.30;99.90;;;15.38;100.00;100832.94;5211545;28;20103;-50
2023/07/22 03:45:31;;;;;;;6.72;3.47;;;15.30;99.90;;;15.30;100.00;100834.56;5210983;28;20053;-50
2023/07/22 03:48:03;;;;;;;5.95;3.20;;;15.20;99.90;;;15.31;100.00;100837.19;5225003;28;20053;-50
2023/07/22 03:50:36;;;;;;;8.52;3.55;;;15.20;99.90;;;15.27;100.00;100835.41;5210354;28;20049;-50
2023/07/22 03:53:08;;;;;;;6.55;2.83;;;15.20;99.90;;;15.23;100.00;100833.56;5230696;28;20095;-50
2023/07/22 03:55:41;;;;;;;6.82;3.13;;;15.20;99.90;;;15.27;100.00;100839.78;5219957;28;20055;-50
2023/07/22 03:58:15;;;;;;;7.38;3.30;;;15.20;99.90;;;15.33;100.00;100845.13;5212323;28;20041;-50
2023/07/22 04:00:50;;;;;;;6.63;3.10;;;15.20;99.90;;;15.35;100.00;100839.03;5219702;28;20511;-49
2023/07/22 04:03:23;;;;;;;6.93;3.30;;;15.20;99.90;;;15.35;100.00;100841.66;5220050;28;20069;-50
2023/07/22 04:05:55;;;;;;;6.15;3.50;;;15.10;99.90;;;15.34;100.00;100847.78;5224037;28;20037;-50
2023/07/22 04:08:28;;;;;;;5.38;2.85;;;15.20;99.90;;;15.33;100.00;100843.38;5215289;28;20462;-50
2023/07/22 04:11:00;;;;;;;5.82;3.22;;;15.20;99.90;;;15.34;100.00;100842.53;5223984;28;20414;-50
2023/07/22 04:13:34;;;;;;;5.95;3.00;;;15.20;99.90;;;15.32;100.00;100836.38;5207109;28;20336;-50
2023/07/22 04:16:06;;;;;;;6.20;3.10;;;15.20;99.90;;;15.32;100.00;100841.63;5223864;28;20426;-50
2023/07/22 04:18:41;;;;;;;7.93;3.20;;;15.20;99.90;;;15.34;100.00;100845.16;5223438;28;20508;-50
2023/07/22 04:21:13;;;;;;;5.88;3.22;;;15.20;99.90;;;15.33;100.00;100846.00;5218130;28;20422;-50
2023/07/22 04:23:45;;;;;;;5.90;3.08;;;15.20;99.90;;;15.28;100.00;100839.78;5222411;28;20498;-51
2023/07/22 04:26:18;;;;;;;6.30;3.20;;;15.20;99.90;;;15.26;100.00;100846.78;5216494;28;20046;-50
2023/07/22 04:28:52;;;;;;;5.43;2.83;;;15.20;99.90;;;15.25;100.00;100841.47;5231031;28;20106;-50
2023/07/22 04:31:24;;;;;;;6.15;3.28;;;15.10;99.90;;;15.25;100.00;100847.59;5214933;28;20041;-51
2023/07/22 04:33:58;;;;;;;6.57;3.20;;;15.10;99.90;;;15.27;100.00;100843.28;5215309;28;20037;-50
2023/07/22 04:36:31;;;;;;;6.93;2.97;;;15.10;99.90;;;15.29;100.00;100846.81;5214856;28;20053;-50
2023/07/22 04:39:04;;;;;;;6.50;3.25;;;15.10;99.90;;;15.34;100.00;100852.16;5214931;28;20419;-50
2023/07/22 04:41:37;;;;;;;6.13;3.15;;;15.20;99.90;;;15.38;100.00;100852.19;5222545;28;20049;-50
2023/07/22 04:44:10;;;;;;;6.90;3.33;;;15.20;99.90;;;15.40;100.00;100842.63;5217409;28;20053;-50
2023/07/22 04:46:43;;;;;;;6.75;3.00;;;15.20;99.90;;;15.35;100.00;100854.78;5227677;28;20081;-50
2023/07/22 04:49:17;;;;;;;5.68;3.42;;;15.20;99.90;;;15.31;100.00;100847.72;5234337;28;20049;-50
2023/07/22 04:51:50;;;;;;;6.50;3.33;;;15.20;99.90;;;15.29;100.00;100851.19;5211245;28;20144;-51
2023/07/22 04:54:22;;;;;;;5.55;3.10;;;15.20;99.90;;;15.27;100.00;100855.53;5226990;28;20098;-50
2023/07/22 04:56:55;;;;;;;6.95;3.70;;;15.20;99.90;;;15.34;100.00;100846.91;5215013;28;20351;-50
2023/07/22 04:59:29;;;;;;;8.25;3.95;;;15.20;99.90;;;15.43;100.00;100842.66;5223304;28;20053;-51
2023/07/22 05:02:01;;;;;;;5.82;3.15;;;15.30;99.90;;;15.56;100.00;100848.09;5215390;28;20037;-50
2023/07/22 05:04:34;;;;;;;8.88;3.60;;;15.40;99.90;;;15.70;100.00;100857.09;5213760;28;20136;-51
2023/07/22 05:07:06;;;;;;;6.95;3.13;;;15.50;99.90;;;15.72;100.00;100860.66;5224136;28;20052;-50
2023/07/22 05:09:39;;;;;;;6.88;3.13;;;15.60;99.90;;;15.74;100.00;100866.81;5221163;28;20045;-50
2023/07/22 05:12:11;;;;;;;8.20;3.53;;;15.60;99.90;;;15.71;100.00;100864.13;5220801;28;20076;-52
2023/07/22 05:14:46;;;;;;;6.03;3.20;;;15.60;99.90;;;15.67;100.00;100849.19;5221645;28;20071;-51
2023/07/22 05:17:19;;;;;;;6.03;3.13;;;15.60;99.90;;;15.63;100.00;100855.25;5221724;28;20083;-50
2023/07/22 05:19:51;;;;;;;6.72;3.00;;;15.60;99.90;;;15.63;100.00;100850.00;5216274;28;20044;-49
2023/07/22 05:22:23;;;;;;;6.65;3.45;;;15.60;99.90;;;15.56;100.00;100859.50;5219583;28;20052;-51
2023/07/22 05:24:56;;;;;;;7.65;3.45;;;15.50;99.90;;;15.58;100.00;100852.50;5216983;28;20049;-50
2023/07/22 05:27:29;;;;;;;6.85;3.47;;;15.50;99.90;;;15.68;100.00;100856.22;5220471;28;20498;-50
2023/07/22 05:30:03;;;;;;;6.28;3.45;;;15.60;99.90;;;15.78;100.00;100858.13;5213850;28;20548;-50
2023/07/22 05:32:35;;;;;;;8.18;3.55;;;15.70;99.90;;;15.84;100.00;100855.56;5213304;28;20059;-50
2023/07/22 05:35:10;;;;;;;6.07;3.10;;;15.70;99.90;;;15.91;100.00;100860.06;5219717;28;20033;-49
2023/07/22 05:37:43;;;;;;;6.55;3.42;;;15.80;99.90;;;15.96;100.00;100860.09;5219523;28;20415;-49
2023/07/22 05:40:15;;;;;;;5.97;3.13;;;15.80;99.90;;;15.95;100.00;100858.34;5231989;28;20434;-50
2023/07/22 05:42:48;;;;;;;7.30;3.22;;;15.80;99.90;;;15.98;100.00;100848.78;5218243;28;20498;-50
2023/07/22 05:45:22;;;;;;;5.72;2.97;;;15.90;99.90;;;16.01;100.00;100858.44;5219201;28;20497;-53
2023/07/22 05:47:54;;;;;;;5.68;3.00;;;15.90;99.90;;;16.07;100.00;100858.53;5217118;28;20053;-51
2023/07/22 05:50:26;;;;;;;6.32;3.15;;;15.90;99.90;;;16.12;100.00;100855.97;5220665;28;20544;-48
2023/07/22 05:52:59;;;;;;;7.88;3.25;;;16.00;99.90;;;16.24;100.00;100854.38;5224821;28;20051;-48
2023/07/22 05:55:31;;;;;;;6.47;3.05;;;16.10;99.90;;;16.38;100.00;100854.53;5221598;28;20041;-49
2023/07/22 05:58:06;;;;;;;7.50;3.13;;;16.20;99.90;;;16.60;100.00;100854.78;5221696;28;20059;-48
2023/07/22 06:00:39;;;;;;;6.18;2.97;;;16.30;99.90;;;16.79;100.00;100848.88;5221658;28;20132;-48
2023/07/22 06:03:15;;;;;;;5.88;3.45;;;16.50;99.90;;;16.91;100.00;100849.00;5221754;28;20057;-48
2023/07/22 06:05:47;;;;;;;6.28;3.30;;;16.60;99.90;;;17.01;100.00;100858.75;5221991;28;20041;-49
2023/07/22 06:08:20;;;;;;;6.47;2.80;;;16.70;99.90;;;17.13;100.00;100863.25;5222106;28;20045;-48
2023/07/22 06:10:52;;;;;;;5.93;3.05;;;16.80;99.90;;;17.22;100.00;100865.09;5221819;28;20041;-48
2023/07/22 06:13:27;;;;;;;6.47;2.90;;;16.90;99.90;;;17.32;100.00;100869.56;5221951;28;20041;-48
2023/07/22 06:16:02;;;;;;;5.60;3.40;;;17.00;99.90;;;17.46;100.00;100859.13;5221556;28;20037;-49
2023/07/22 06:18:35;;;;;;;6.05;3.22;;;17.10;99.90;;;17.58;100.00;100862.75;5221535;28;20510;-48
2023/07/22 06:21:07;;;;;;;4.60;2.70;;;17.20;99.90;;;17.74;100.00;100865.53;5208871;28;20056;-48
2023/07/22 06:23:40;;;;;;;4.90;3.13;;;17.30;99.90;;;17.80;99.13;100873.47;5233599;28;20087;-49
2023/07/22 06:26:12;;;;;;;6.03;3.20;;;17.40;99.90;;;17.73;98.90;100877.81;5221408;28;20053;-50
2023/07/22 06:28:45;;;;;;;4.55;2.78;;;17.40;99.90;;;17.67;98.94;100868.94;5213162;28;20053;-49
2023/07/22 06:31:18;;;;;;;5.82;2.88;;;17.40;99.90;;;17.74;99.06;100873.47;5212330;28;20399;-47
2023/07/22 06:33:51;;;;;;;6.60;3.30;;;17.40;99.90;;;17.85;99.40;100858.56;5212251;28;20052;-45
2023/07/22 06:36:24;;;;;;;5.95;3.05;;;17.50;99.90;;;18.03;98.83;100857.78;5214780;28;20626;-45
2023/07/22 06:38:56;;;;;;;4.25;2.22;;;17.60;99.90;;;18.14;98.27;100842.91;5216433;28;20045;-47
2023/07/22 06:41:29;;;;;;;6.07;3.03;;;17.80;99.90;;;18.26;97.93;100842.97;5216536;28;20056;-46
2023/07/22 06:44:01;;;;;;;6.13;2.95;;;17.90;99.90;;;18.29;97.15;100844.72;5219755;28;20045;-45
2023/07/22 06:46:35;;;;;;;7.68;3.70;;;17.90;99.90;;;18.35;96.75;100856.19;5204492;28;20057;-46
2023/07/22 06:49:08;;;;;;;5.25;2.88;;;18.10;99.90;;;18.43;97.05;100859.72;5220842;28;20402;-46
2023/07/22 06:51:40;;;;;;;3.97;2.45;;;18.10;99.90;;;18.68;96.42;100858.09;5203571;28;20145;-47
2023/07/22 06:54:13;;;;;;;5.68;3.17;;;18.20;99.90;;;18.97;95.26;100871.38;5225245;28;20049;-47
2023/07/22 06:56:45;;;;;;;4.45;2.58;;;18.50;99.90;;;19.16;93.85;100866.97;5210806;28;20170;-48
2023/07/22 06:59:17;;;;;;;6.00;2.78;;;18.60;99.90;;;19.30;92.89;100868.72;5207505;28;20080;-46
2023/07/22 07:01:51;;;;;;;4.57;2.67;;;18.80;99.90;;;19.41;92.47;100867.84;5224403;28;20051;-51
2023/07/22 07:04:24;;;;;;;5.45;3.00;;;18.90;99.90;;;19.49;91.65;100871.38;5226443;28;20107;-52
2023/07/22 07:06:56;;;;;;;4.07;2.88;;;19.00;99.80;;;19.58;91.44;100870.53;5209493;28;20095;-51
2023/07/22 07:09:28;;;;;;;5.95;2.67;;;19.00;99.70;;;19.60;90.99;100874.06;5232467;28;20449;-51
2023/07/22 07:12:01;;;;;;;5.25;3.10;;;19.10;99.40;;;19.70;90.32;100873.19;5216872;28;20410;-51
2023/07/22 07:14:35;;;;;;;4.97;2.40;;;19.10;99.20;;;19.84;89.85;100869.63;5229296;28;20033;-51
2023/07/22 07:17:08;;;;;;;4.72;2.67;;;19.30;99.00;;;20.00;89.09;100869.56;5217133;28;20049;-45
2023/07/22 07:19:41;;;;;;;4.68;2.55;;;19.40;98.80;;;20.15;88.20;100871.31;5215984;28;20053;-46
2023/07/22 07:22:13;;;;;;;6.35;3.08;;;19.50;98.50;;;20.21;87.38;100873.94;5218131;28;20053;-46
2023/07/22 07:24:45;;;;;;;6.10;2.58;;;19.60;98.10;;;20.32;87.30;100866.81;5225633;28;20041;-46
2023/07/22 07:27:21;;;;;;;4.68;2.45;;;19.70;98.00;;;20.43;86.88;100864.13;5223083;28;20053;-46
2023/07/22 07:29:54;;;;;;;4.20;2.45;;;19.80;97.80;;;20.48;86.48;100864.16;5224845;28;20457;-46
2023/07/22 07:32:27;;;;;;;4.95;2.67;;;19.90;97.60;;;20.51;85.83;100866.78;5220481;28;20092;-46
2023/07/22 07:35:00;;;;;;;5.20;2.50;;;19.90;97.30;;;20.52;85.91;100863.25;5212880;28;20082;-48
2023/07/22 07:37:33;;;;;;;7.18;3.05;;;20.00;97.30;;;20.57;85.49;100861.47;5222631;28;20398;-48
2023/07/22 07:40:08;;;;;;;5.45;2.40;;;20.00;97.10;;;20.63;85.14;100860.53;5219997;28;20054;-49
2023/07/22 07:42:43;;;;;;;5.72;3.00;;;20.00;96.80;;;20.70;84.13;100857.84;5219735;28;20064;-52
2023/07/22 07:45:16;;;;;;;5.65;2.42;;;20.10;96.40;;;20.85;84.45;100847.16;5204142;28;20056;-49
2023/07/22 07:47:50;;;;;;;4.25;2.53;;;20.20;96.50;;;21.24;84.17;100857.47;5225599;28;20733;-49
2023/07/22 07:50:22;;;;;;;4.28;2.40;;;20.40;96.60;;;21.73;83.33;100857.97;5233701;28;20052;-48
2023/07/22 07:52:54;;;;;;;5.47;2.42;;;20.80;96.50;;;21.98;80.13;100863.03;5205717;28;20045;-48
2023/07/22 07:55:27;;;;;;;4.75;2.75;;;21.10;95.00;;;22.12;78.67;100874.41;5220187;28;20419;-54
2023/07/22 07:57:59;;;;;;;4.45;2.28;;;21.20;94.20;;;22.20;78.57;100859.25;5224118;28;20049;-51
2023/07/22 08:00:32;;;;;;;5.03;2.20;;;21.40;94.00;;;22.23;78.31;100855.66;5216315;28;20045;-49
2023/07/22 08:03:05;;;;;;;5.30;2.65;;;21.40;93.80;;;22.38;78.53;100855.50;5219684;28;20107;-49
2023/07/22 08:05:38;;;;;;;4.70;2.67;;;21.50;93.70;;;22.66;77.65;100861.31;5219558;28;20056;-50
2023/07/22 08:08:10;;;;;;;4.72;2.45;;;21.70;93.40;;;23.06;75.61;100861.63;5219607;28;20793;-50
2023/07/22 08:10:44;;;;;;;6.55;2.55;;;22.00;92.70;;;23.41;74.23;100862.84;5220102;28;20572;-53
2023/07/22 08:13:16;;;;;;;4.10;2.50;;;22.20;92.10;;;23.69;72.52;100847.31;5214269;28;20136;-49
2023/07/22 08:15:49;;;;;;;4.63;2.60;;;22.50;91.30;;;24.04;70.96;100855.50;5218763;28;20037;-49
2023/07/22 08:18:23;;;;;;;4.88;2.40;;;22.70;90.50;;;24.30;69.69;100851.44;5216358;28;20072;-51
2023/07/22 08:20:56;;;;;;;4.40;2.25;;;23.00;89.40;;;24.30;69.69;100851.44;5222101;28;20049;-53
2023/07/22 08:23:32;;;;;;;4.45;2.42;;;23.10;88.90;;;24.25;70.12;100847.97;5218864;28;20038;-50
2023/07/22 08:26:05;;;;;;;4.05;2.53;;;23.10;88.90;;;24.36;70.51;100846.00;5219385;28;20045;-52
2023/07/22 08:28:38;;;;;;;3.42;1.95;;;23.10;88.90;;;24.38;70.66;100853.97;5210305;28;20080;-49
2023/07/22 08:31:10;;;;;;;5.03;2.38;;;23.10;88.90;;;24.32;69.63;100844.28;5217655;28;20041;-51
2023/07/22 08:33:44;;;;;;;4.78;2.28;;;23.10;87.90;;;24.25;68.82;100847.97;5227282;28;20140;-53
2023/07/22 08:36:16;;;;;;;3.67;2.28;;;23.00;86.50;;;24.25;69.08;100842.66;5215607;28;20064;-51
2023/07/22 08:38:49;;;;;;;5.35;2.20;;;23.00;86.30;;;24.38;69.44;100849.50;5223420;28;20048;-50
2023/07/22 08:41:22;;;;;;;4.78;2.75;;;23.10;86.70;;;24.64;68.40;100844.50;5223472;28;20414;-50
2023/07/22 08:43:56;;;;;;;5.00;2.55;;;23.20;86.20;;;24.70;68.47;100839.94;5212770;28;20403;-51
2023/07/22 08:46:30;;;;;;;;;;;23.30;85.70;;;24.76;68.57;100838.00;5222372;28;20506;-52
2023/07/22 08:49:07;;;;;;;3.53;2.03;;;23.40;85.60;;;24.99;67.48;100847.28;5223531;28;20378;-51
2023/07/22 08:51:41;;;;;;;4.82;2.20;;;23.50;84.60;;;25.00;67.38;100849.03;5223640;28;20153;-50
2023/07/22 08:54:14;;;;;;;3.55;2.38;;;23.60;84.70;;;25.20;66.72;100849.44;5219156;28;20040;-52
2023/07/22 08:56:47;;;;;;;4.38;2.30;;;23.70;83.50;;;24.99;66.38;100848.16;5222494;28;20044;-48
2023/07/22 08:59:19;;;;;;;4.03;2.30;;;23.70;82.70;;;24.47;66.69;100846.66;5207543;28;20045;-50
2023/07/22 09:01:52;;;;;;;4.13;2.03;;;23.40;82.00;;;24.02;68.22;100833.34;5228860;28;20048;-50
2023/07/22 09:04:26;;;;;;;4.40;2.30;;;23.10;82.50;;;23.82;69.42;100840.88;5223537;28;20068;-49
2023/07/22 09:06:59;;;;;;;3.20;2.05;;;23.00;83.90;;;23.65;69.65;100834.97;5223172;28;20498;-49
2023/07/22 09:09:32;;;;;;;4.65;2.50;;;22.80;83.90;;;23.61;70.08;100842.16;5223213;28;20049;-49
2023/07/22 09:12:05;;;;;;;3.65;1.85;;;22.70;84.40;;;23.94;69.54;100835.31;5224232;28;20044;-51
2023/07/22 09:14:39;;;;;;;4.90;2.00;;;22.90;84.40;;;24.26;67.63;100837.31;5223073;28;20061;-50
2023/07/22 09:17:12;;;;;;;3.30;2.00;;;23.10;83.10;;;24.47;67.22;100833.34;5222665;28;20057;-50
2023/07/22 09:19:46;;;;;;;4.13;2.40;;;23.20;82.30;;;24.50;67.01;100833.25;5223195;28;20049;-50
2023/07/22 09:22:18;;;;;;;5.90;3.03;;;23.30;82.10;;;24.52;67.26;100823.47;5214701;28;20041;-49
2023/07/22 09:24:52;;;;;;;4.05;2.42;;;23.40;82.00;;;24.55;67.21;100827.84;5222908;28;20363;-50
2023/07/22 09:27:35;;;;;;;3.85;2.13;;;23.40;82.60;;;24.45;67.37;100834.28;5223082;28;20064;-49
2023/07/22 09:30:23;;;;;;;4.32;2.13;;;23.30;81.60;;;24.26;66.06;100832.00;5223004;28;20084;-49
2023/07/22 09:32:58;;;;;;;3.33;2.10;;;23.30;80.20;;;24.06;66.07;100826.16;5222632;28;20048;-49
2023/07/22 09:35:45;;;;;;;4.45;2.15;;;23.20;79.70;;;23.99;66.27;100825.41;5223382;28;20060;-49
2023/07/22 09:38:23;;;;;;;;;;;23.10;80.10;;;24.01;67.11;100839.59;5222896;28;20053;-49
2023/07/22 09:40:56;;;;;;;3.92;2.45;;;23.10;80.40;;;24.08;65.77;100825.25;5222191;28;20309;-49
2023/07/22 09:43:28;;;;;;;4.03;2.20;;;23.10;79.40;;;24.09;66.28;100824.34;5222380;28;20041;-49
2023/07/22 09:46:08;;;;;;;4.22;2.22;;;23.20;79.70;;;24.13;67.37;100824.28;5222364;28;20044;-49
2023/07/22 09:48:42;;;;;;;4.20;2.42;;;23.20;80.80;;;24.12;68.02;100819.84;5222762;28;20076;-49
2023/07/22 09:51:17;;;;;;;5.22;2.65;;;23.20;81.20;;;24.17;67.98;100824.16;5222616;28;20135;-49
2023/07/22 09:54:03;;;;;;;5.85;2.42;;;23.30;81.20;;;24.20;68.26;100825.91;5222505;28;20526;-51
2023/07/22 09:56:45;;;;;;;6.00;2.80;;;23.40;81.20;;;24.08;67.42;100824.38;5216062;28;20068;-51
2023/07/22 09:59:21;;;;;;;5.28;3.00;;;23.30;80.20;;;23.88;66.74;100816.78;5222445;28;20135;-49
2023/07/22 10:01:54;;;;;;;5.20;2.70;;;23.20;79.20;;;23.71;67.61;100818.88;5222042;28;20111;-49
2023/07/22 10:04:29;;;;;;;4.15;2.55;;;23.00;79.70;;;23.55;68.01;100818.28;5222286;28;20504;-49
2023/07/22 10:07:04;;;;;;;5.28;2.78;;;22.90;80.20;;;23.42;65.89;100806.97;5221934;28;20580;-48
2023/07/22 10:09:39;;;;;;;5.40;2.40;;;22.80;77.60;;;23.43;65.11;100811.38;5222416;28;20056;-48
2023/07/22 10:12:14;;;;;;;5.45;2.58;;;22.80;77.20;;;23.81;64.97;100815.16;5221621;28;20049;-48
2023/07/22 10:14:48;;;;;;;4.28;2.33;;;23.00;77.30;;;24.27;65.46;100816.88;5219647;28;20597;-48
2023/07/22 10:17:21;;;;;;;3.25;2.15;;;23.30;78.20;;;24.72;63.07;100815.03;5222110;28;20059;-48
2023/07/22 10:19:57;;;;;;;3.30;2.10;;;23.70;76.10;;;25.13;60.64;100807.84;5222250;28;20086;-48
2023/07/22 10:22:31;;;;;;;3.85;2.33;;;24.00;73.80;;;25.44;59.45;100808.81;5222056;28;20053;-48
2023/07/22 10:25:07;;;;;;;3.83;2.25;;;24.30;72.70;;;25.71;57.96;100804.53;5222172;28;20056;-48
2023/07/22 10:27:41;;;;;;;4.18;2.35;;;24.60;71.40;;;25.83;56.67;100800.66;5222390;28;20045;-48
2023/07/22 10:30:15;;;;;;;3.45;1.75;;;24.80;70.10;;;26.03;56.60;100801.91;5221933;28;20123;-48
2023/07/22 10:32:49;;;;;;;3.17;1.98;;;25.00;69.90;;;26.25;54.94;100793.19;5222144;28;20052;-48
2023/07/22 10:35:36;;;;;;;2.83;1.70;;;25.20;68.20;;;26.46;54.43;100791.69;5221927;28;20048;-49